createdAt,value
2023-05-22T00:01:08.095Z,100427.84
2023-05-22T00:03:13.376Z,100429.21
2023-05-22T00:05:18.875Z,100424.45
2023-05-22T00:07:24.307Z,100426.66
2023-05-22T00:09:29.597Z,100423.93
2023-05-22T00:11:34.853Z,100419.8
2023-05-22T00:13:40.092Z,100425.02
2023-05-22T00:15:45.413Z,100422.89
2023-05-22T00:17:50.885Z,100424.77
2023-05-22T00:19:56.394Z,100425.87
2023-05-22T00:22:01.630Z,100426.63
2023-05-22T00:24:06.934Z,100429.67
2023-05-22T00:26:12.312Z,100423.06
2023-05-22T00:28:17.954Z,100425.38
2023-05-22T00:30:23.391Z,100420.73
2023-05-22T00:32:28.931Z,100424.77
2023-05-22T00:34:34.366Z,100424.66
2023-05-22T00:36:39.708Z,100428.3
2023-05-22T00:38:45.054Z,100423.73
2023-05-22T00:40:50.488Z,100426.03
2023-05-22T00:42:55.817Z,100423.73
2023-05-22T00:45:01.068Z,100420.94
2023-05-22T00:47:06.445Z,100419.38
2023-05-22T00:49:11.850Z,100417.7
2023-05-22T00:51:17.202Z,100419.86
2023-05-22T00:53:22.520Z,100419.43
2023-05-22T00:55:27.879Z,100416.55
2023-05-22T00:57:33.090Z,100417.15
2023-05-22T00:59:38.428Z,100416.83
2023-05-22T01:01:43.990Z,100412.67
2023-05-22T01:03:49.676Z,100413.1
2023-05-22T01:05:55.238Z,100415.06
2023-05-22T01:08:00.595Z,100414.56
2023-05-22T01:10:06.061Z,100415.8
2023-05-22T01:12:11.380Z,100419.47
2023-05-22T01:14:16.616Z,100418.83
2023-05-22T01:16:22.109Z,100416.23
2023-05-22T01:18:27.378Z,100417.85
2023-05-22T01:20:32.618Z,100421.98
2023-05-22T01:22:38.074Z,100423.17
2023-05-22T01:24:43.470Z,100425.3
2023-05-22T01:26:48.845Z,100427.16
2023-05-22T01:28:54.188Z,100427.63
2023-05-22T01:30:59.624Z,100425.6
2023-05-22T01:33:05.279Z,100425.58
2023-05-22T01:35:10.817Z,100427.24
2023-05-22T01:37:16.258Z,100425.77
2023-05-22T01:39:21.597Z,100426.58
2023-05-22T01:41:27.034Z,100424.89
2023-05-22T01:43:32.368Z,100425.2
2023-05-22T01:45:37.757Z,100425.61
2023-05-22T01:47:43.152Z,100425.5
2023-05-22T01:49:48.570Z,100425.97
2023-05-22T01:51:53.729Z,100424.52
2023-05-22T01:53:59.281Z,100423.66
2023-05-22T01:56:04.760Z,100423.36
2023-05-22T01:58:09.963Z,100423.08
2023-05-22T02:00:15.227Z,100424.08
2023-05-22T02:02:21.076Z,100424.19
2023-05-22T02:04:26.467Z,100422.11
2023-05-22T02:06:31.671Z,100423.1
2023-05-22T02:08:37.042Z,100422.2
2023-05-22T02:10:42.686Z,100417.67
2023-05-22T02:12:48.002Z,100416.45
2023-05-22T02:14:53.269Z,100414.98
2023-05-22T02:16:58.486Z,100412.83
2023-05-22T02:19:03.850Z,100414.24
2023-05-22T02:21:09.375Z,100411.31
2023-05-22T02:23:14.667Z,100412.58
2023-05-22T02:25:20.108Z,100413.94
2023-05-22T02:27:25.388Z,100417
2023-05-22T02:29:30.724Z,100415.65
2023-05-22T02:31:36.178Z,100418.13
2023-05-22T02:33:41.630Z,100418.84
2023-05-22T02:35:47.054Z,100418.64
2023-05-22T02:37:52.393Z,100417.73
2023-05-22T02:39:57.842Z,100418.05
2023-05-22T02:42:03.258Z,100417.1
2023-05-22T02:44:08.610Z,100415.06
2023-05-22T02:46:14.056Z,100418.11
2023-05-22T02:48:19.466Z,100414.2
2023-05-22T02:50:24.714Z,100409.67
2023-05-22T02:52:30.092Z,100409.61
2023-05-22T02:54:35.394Z,100409.73
2023-05-22T02:56:40.648Z,100412.88
2023-05-22T02:58:45.855Z,100411.3
2023-05-22T03:02:09.829Z,100411.81
2023-05-22T03:04:15.489Z,100409.94
2023-05-22T03:06:20.827Z,100407.7
2023-05-22T03:08:26.065Z,100409.03
2023-05-22T03:10:31.471Z,100407.91
2023-05-22T03:12:36.739Z,100410.61
2023-05-22T03:14:42.235Z,100410.23
2023-05-22T03:16:47.705Z,100412.39
2023-05-22T03:18:53.143Z,100411.75
2023-05-22T03:20:58.606Z,100406.23
2023-05-22T03:23:03.938Z,100411.67
2023-05-22T03:25:09.176Z,100409.19
2023-05-22T03:27:14.515Z,100405.95
2023-05-22T03:29:20.057Z,100404.36
2023-05-22T03:31:25.296Z,100406.61
2023-05-22T03:33:30.614Z,100406.25
2023-05-22T03:35:35.985Z,100408.69
2023-05-22T03:37:41.309Z,100408.8
2023-05-22T03:39:46.654Z,100406.95
2023-05-22T03:41:52.090Z,100404.33
2023-05-22T03:43:57.422Z,100404.41
2023-05-22T03:46:02.807Z,100400.89
2023-05-22T03:48:08.196Z,100404.87
2023-05-22T03:50:13.555Z,100398.12
2023-05-22T03:52:18.921Z,100397.73
2023-05-22T03:54:24.249Z,100402.49
2023-05-22T03:56:29.553Z,100400.92
2023-05-22T03:58:35.002Z,100404.27
2023-05-22T04:00:40.709Z,100405.34
2023-05-22T04:02:46.496Z,100401.45
2023-05-22T04:04:52.168Z,100399.25
2023-05-22T04:06:57.565Z,100397.55
2023-05-22T04:09:02.874Z,100397.95
2023-05-22T04:11:08.265Z,100396.4
2023-05-22T04:13:13.712Z,100399.34
2023-05-22T04:15:19.017Z,100401.59
2023-05-22T04:17:24.337Z,100407.74
2023-05-22T04:19:30.235Z,100397.8
2023-05-22T04:21:35.983Z,100398.18
2023-05-22T04:23:41.206Z,100398.33
2023-05-22T04:25:46.602Z,100398.32
2023-05-22T04:27:52.290Z,100397.08
2023-05-22T04:29:58.142Z,100398.24
2023-05-22T04:32:03.435Z,100401.66
2023-05-22T04:34:08.821Z,100398.89
2023-05-22T04:36:14.197Z,100400.92
2023-05-22T04:38:19.707Z,100396.34
2023-05-22T04:40:25.039Z,100399.09
2023-05-22T04:42:30.352Z,100398.24
2023-05-22T04:44:35.757Z,100392.22
2023-05-22T04:46:41.228Z,100391.98
2023-05-22T04:48:46.686Z,100397.38
2023-05-22T04:50:52.233Z,100396.53
2023-05-22T04:52:57.474Z,100400.42
2023-05-22T04:55:06.028Z,100398.05
2023-05-22T04:57:11.420Z,100396.59
2023-05-22T04:59:16.859Z,100398.24
2023-05-22T05:01:22.320Z,100401.98
2023-05-22T05:03:27.877Z,100401.11
2023-05-22T05:05:33.403Z,100401.4
2023-05-22T05:07:38.822Z,100400.49
2023-05-22T05:09:44.264Z,100403.04
2023-05-22T05:11:49.607Z,100400.31
2023-05-22T05:13:55.047Z,100403.85
2023-05-22T05:16:00.492Z,100401.02
2023-05-22T05:18:05.766Z,100402.25
2023-05-22T05:20:11.261Z,100400.36
2023-05-22T05:22:16.707Z,100397.16
2023-05-22T05:24:21.948Z,100397.02
2023-05-22T05:26:27.601Z,100393.36
2023-05-22T05:28:33.026Z,100395.05
2023-05-22T05:30:38.982Z,100396.75
2023-05-22T05:32:45.065Z,100405.2
2023-05-22T05:34:50.535Z,100405.64
2023-05-22T05:36:55.797Z,100403.26
2023-05-22T05:39:01.061Z,100400.64
2023-05-22T05:41:06.381Z,100400.63
2023-05-22T05:43:11.813Z,100398.73
2023-05-22T05:45:17.056Z,100399.2
2023-05-22T05:47:22.646Z,100396.63
2023-05-22T05:49:28.454Z,100395.08
2023-05-22T05:51:33.750Z,100391.09
2023-05-22T05:53:41.283Z,100390.81
2023-05-22T05:55:46.721Z,100392.09
2023-05-22T05:57:52.059Z,100397.41
2023-05-22T05:59:57.396Z,100390.21
2023-05-22T06:02:02.620Z,100393.5
2023-05-22T06:04:07.964Z,100394.53
2023-05-22T06:06:13.313Z,100397.97
2023-05-22T06:08:18.662Z,100394.79
2023-05-22T06:10:24.032Z,100393.44
2023-05-22T06:12:29.487Z,100389.05
2023-05-22T06:14:35.174Z,100387.7
2023-05-22T06:16:40.553Z,100384.77
2023-05-22T06:18:46.067Z,100389.45
2023-05-22T06:20:51.396Z,100394.19
2023-05-22T06:22:56.582Z,100390.56
2023-05-22T06:25:01.866Z,100390.91
2023-05-22T06:27:06.956Z,100393.17
2023-05-22T06:29:12.177Z,100393.39
2023-05-22T06:31:17.289Z,100392.8
2023-05-22T06:33:22.644Z,100388.5
2023-05-22T06:35:27.985Z,100391.17
2023-05-22T06:37:33.076Z,100388.88
2023-05-22T06:39:38.302Z,100385.04
2023-05-22T06:41:43.409Z,100391.17
2023-05-22T06:43:48.476Z,100392.49
2023-05-22T06:45:53.677Z,100392.54
2023-05-22T06:47:59.137Z,100396.35
2023-05-22T06:50:04.486Z,100396.88
2023-05-22T06:52:09.728Z,100401.09
2023-05-22T06:54:15.213Z,100399.86
2023-05-22T06:56:20.599Z,100401.76
2023-05-22T06:58:25.942Z,100401.14
2023-05-22T07:00:31.341Z,100400.25
2023-05-22T07:02:36.739Z,100399.67
2023-05-22T07:04:42.281Z,100403.59
2023-05-22T07:06:47.809Z,100399.61
2023-05-22T07:08:53.349Z,100396.86
2023-05-22T07:10:58.785Z,100394.44
2023-05-22T07:13:04.123Z,100392.66
2023-05-22T07:15:09.350Z,100394.21
2023-05-22T07:17:14.691Z,100391.7
2023-05-22T07:19:20.120Z,100390.27
2023-05-22T07:21:25.486Z,100390.73
2023-05-22T07:23:30.704Z,100394.83
2023-05-22T07:25:35.966Z,100392.13
2023-05-22T07:27:41.279Z,100392.12
2023-05-22T07:29:46.625Z,100391.95
2023-05-22T07:31:52.060Z,100389.44
2023-05-22T07:33:57.500Z,100391.52
2023-05-22T07:36:02.947Z,100392.16
2023-05-22T07:38:08.485Z,100389.19
2023-05-22T07:40:13.881Z,100390.42
2023-05-22T07:42:19.124Z,100385.74
2023-05-22T07:44:24.396Z,100387.97
2023-05-22T07:46:29.762Z,100385.72
2023-05-22T07:48:35.185Z,100387.44
2023-05-22T07:50:40.569Z,100387
2023-05-22T07:52:45.943Z,100380.84
2023-05-22T07:54:51.285Z,100385.09
2023-05-22T07:56:56.650Z,100381.31
2023-05-22T07:59:02.001Z,100383.2
2023-05-22T08:01:10.069Z,100378.25
2023-05-22T08:03:17.339Z,100382.52
2023-05-22T08:05:24.364Z,100377.25
2023-05-22T08:07:30.022Z,100376.88
2023-05-22T08:09:35.301Z,100377.48
2023-05-22T08:11:41.418Z,100377.64
2023-05-22T08:13:46.690Z,100379.78
2023-05-22T08:16:01.732Z,100374.66
2023-05-22T08:18:07.644Z,100374.44
2023-05-22T08:20:14.068Z,100378.38
2023-05-22T08:22:19.520Z,100377.3
2023-05-22T08:24:24.787Z,100378.72
2023-05-22T08:26:32.597Z,100372.54
2023-05-22T08:28:37.950Z,100377.74
2023-05-22T08:30:43.226Z,100369.84
2023-05-22T08:32:48.620Z,100370.05
2023-05-22T08:34:54.059Z,100371.56
2023-05-22T08:36:59.336Z,100368.09
2023-05-22T08:39:04.587Z,100371.92
2023-05-22T08:41:09.911Z,100370.28
2023-05-22T08:43:15.348Z,100366.52
2023-05-22T08:45:20.598Z,100362
2023-05-22T08:47:26.248Z,100365.73
2023-05-22T08:49:31.734Z,100359.72
2023-05-22T08:51:37.070Z,100359.97
2023-05-22T08:53:42.449Z,100355.38
2023-05-22T08:55:47.953Z,100352.36
2023-05-22T08:57:53.225Z,100361.3
2023-05-22T08:59:58.567Z,100353.98
2023-05-22T09:02:06.753Z,100351.7
2023-05-22T09:04:12.346Z,100348.58
2023-05-22T09:06:17.657Z,100344.81
2023-05-22T09:08:22.887Z,100346.02
2023-05-22T09:10:28.179Z,100344.88
2023-05-22T09:12:33.459Z,100340.06
2023-05-22T09:14:38.702Z,100343.64
2023-05-22T09:16:44.098Z,100333.42
2023-05-22T09:18:49.473Z,100332.98
2023-05-22T09:20:54.825Z,100328.79
2023-05-22T09:23:00.162Z,100331.55
2023-05-22T09:25:06.010Z,100337.86
2023-05-22T09:27:11.308Z,100330.05
2023-05-22T09:29:16.839Z,100333.5
2023-05-22T09:31:22.241Z,100334.72
2023-05-22T09:33:27.674Z,100335.07
2023-05-22T09:35:33.002Z,100331.84
2023-05-22T09:37:38.352Z,100328.05
2023-05-22T09:39:43.675Z,100324.88
2023-05-22T09:41:48.918Z,100320.08
2023-05-22T09:43:54.150Z,100317.11
2023-05-22T09:45:59.597Z,100322.89
2023-05-22T09:48:05.180Z,100318.45
2023-05-22T09:50:10.860Z,100317.17
2023-05-22T09:52:16.122Z,100318.49
2023-05-22T09:54:21.427Z,100318.64
2023-05-22T09:56:40.239Z,100314.36
2023-05-22T09:58:45.561Z,100312.18
2023-05-22T10:00:50.991Z,100307.16
2023-05-22T10:02:56.513Z,100314.7
2023-05-22T10:05:01.974Z,100307.84
2023-05-22T10:07:07.422Z,100308.81
2023-05-22T10:09:12.751Z,100304.48
2023-05-22T10:11:18.122Z,100298.45
2023-05-22T10:13:23.427Z,100298.09
2023-05-22T10:15:28.768Z,100300.58
2023-05-22T10:17:34.061Z,100305.98
2023-05-22T10:19:43.961Z,100297.2
2023-05-22T10:21:51.089Z,100299.99
2023-05-22T10:23:56.392Z,100294.56
2023-05-22T10:26:01.801Z,100290.44
2023-05-22T10:28:07.112Z,100282.39
2023-05-22T10:30:12.474Z,100290.2
2023-05-22T10:32:17.950Z,100289.34
2023-05-22T10:34:23.258Z,100285.16
2023-05-22T10:36:28.588Z,100287.34
2023-05-22T10:38:34.054Z,100285.59
2023-05-22T10:40:39.989Z,100284.45
2023-05-22T10:42:45.364Z,100289.77
2023-05-22T10:44:50.775Z,100285.45
2023-05-22T10:46:56.014Z,100284.48
2023-05-22T10:49:01.457Z,100289.84
2023-05-22T10:51:06.899Z,100279.78
2023-05-22T10:53:12.222Z,100285.47
2023-05-22T10:55:17.670Z,100285.64
2023-05-22T10:57:22.986Z,100281.92
2023-05-22T10:59:28.236Z,100271.48
2023-05-22T11:01:33.749Z,100274.99
2023-05-22T11:03:39.321Z,100280.73
2023-05-22T11:05:44.623Z,100272.13
2023-05-22T11:07:49.940Z,100277.55
2023-05-22T11:09:55.438Z,100270.8
2023-05-22T11:12:00.732Z,100272.08
2023-05-22T11:14:06.038Z,100271.52
2023-05-22T11:16:11.262Z,100268.16
2023-05-22T11:18:16.669Z,100267.28
2023-05-22T11:20:22.026Z,100268.09
2023-05-22T11:22:27.259Z,100267.48
2023-05-22T11:24:32.632Z,100270.13
2023-05-22T11:26:37.957Z,100279
2023-05-22T11:28:43.273Z,100269.72
2023-05-22T11:30:48.726Z,100266.7
2023-05-22T11:32:54.013Z,100256.03
2023-05-22T11:34:59.492Z,100254.8
2023-05-22T11:37:04.869Z,100254.66
2023-05-22T11:39:10.170Z,100255.09
2023-05-22T11:41:15.510Z,100254.81
2023-05-22T11:43:21.152Z,100260.77
2023-05-22T11:45:26.504Z,100255.97
2023-05-22T11:47:32.162Z,100249.73
2023-05-22T11:49:37.495Z,100265.52
2023-05-22T11:51:42.937Z,100264.7
2023-05-22T11:53:48.255Z,100260.19
2023-05-22T11:55:53.561Z,100262.64
2023-05-22T11:57:59.028Z,100249.87
2023-05-22T12:00:04.495Z,100248.81
2023-05-22T12:02:09.911Z,100245.25
2023-05-22T12:04:15.636Z,100240.01
2023-05-22T12:06:21.138Z,100243.34
2023-05-22T12:08:26.518Z,100237.23
2023-05-22T12:10:31.766Z,100241.02
2023-05-22T12:12:37.009Z,100248.19
2023-05-22T12:14:42.271Z,100243
2023-05-22T12:16:48.151Z,100239.45
2023-05-22T12:18:53.964Z,100235.61
2023-05-22T12:20:59.448Z,100236.27
2023-05-22T12:23:04.741Z,100236.4
2023-05-22T12:25:10.168Z,100242.15
2023-05-22T12:27:15.502Z,100233.29
2023-05-22T12:29:20.833Z,100233.65
2023-05-22T12:31:26.287Z,100234.69
2023-05-22T12:33:31.710Z,100235.06
2023-05-22T12:35:37.261Z,100227.28
2023-05-22T12:37:42.636Z,100230.41
2023-05-22T12:39:48.146Z,100226.38
2023-05-22T12:41:53.377Z,100228.16
2023-05-22T12:43:58.607Z,100224.16
2023-05-22T12:46:04.388Z,100221.14
2023-05-22T12:48:09.856Z,100220.2
2023-05-22T12:50:15.258Z,100228.34
2023-05-22T12:52:20.840Z,100225.38
2023-05-22T12:54:26.259Z,100224.8
2023-05-22T12:56:31.667Z,100219.7
2023-05-22T12:58:37.088Z,100220.83
2023-05-22T13:00:42.851Z,100212.03
2023-05-22T13:02:48.146Z,100213.92
2023-05-22T13:04:53.743Z,100208.53
2023-05-22T13:06:59.231Z,100211.55
2023-05-22T13:09:04.537Z,100208.41
2023-05-22T13:11:09.817Z,100209.66
2023-05-22T13:13:15.086Z,100209.31
2023-05-22T13:15:20.357Z,100207.56
2023-05-22T13:17:27.423Z,100202.33
2023-05-22T13:19:33.048Z,100204.38
2023-05-22T13:21:38.851Z,100195.04
2023-05-22T13:23:44.206Z,100202.52
2023-05-22T13:25:49.542Z,100192.88
2023-05-22T13:27:54.781Z,100192.85
2023-05-22T13:30:00.172Z,100191.45
2023-05-22T13:32:05.496Z,100186.48
2023-05-22T13:34:10.886Z,100188.17
2023-05-22T13:36:16.442Z,100182.63
2023-05-22T13:38:21.779Z,100183.3
2023-05-22T13:40:27.018Z,100181.53
2023-05-22T13:42:32.340Z,100175.22
2023-05-22T13:44:37.786Z,100174.47
2023-05-22T13:46:43.173Z,100171.05
2023-05-22T13:48:48.573Z,100169.15
2023-05-22T13:50:54.419Z,100165.23
2023-05-22T13:52:59.647Z,100166.45
2023-05-22T13:55:04.896Z,100159.84
2023-05-22T13:57:10.266Z,100156.48
2023-05-22T13:59:15.598Z,100161.48
2023-05-22T14:01:20.990Z,100161.67
2023-05-22T14:03:26.471Z,100151.75
2023-05-22T14:05:31.917Z,100152.58
2023-05-22T14:07:37.440Z,100154.91
2023-05-22T14:09:42.667Z,100153.86
2023-05-22T14:11:48.112Z,100151.15
2023-05-22T14:13:53.552Z,100155.78
2023-05-22T14:15:58.881Z,100153.87
2023-05-22T14:18:04.182Z,100148.82
2023-05-22T14:20:09.506Z,100148.63
2023-05-22T14:22:14.688Z,100145.67
2023-05-22T14:24:20.046Z,100138.75
2023-05-22T14:26:25.685Z,100135.24
2023-05-22T14:28:31.528Z,100140.72
2023-05-22T14:30:36.986Z,100135.16
2023-05-22T14:32:42.471Z,100138.2
2023-05-22T14:34:47.846Z,100139.72
2023-05-22T14:36:53.183Z,100140.37
2023-05-22T14:38:58.453Z,100134.45
2023-05-22T14:41:04.025Z,100127.84
2023-05-22T14:43:09.595Z,100137.56
2023-05-22T14:45:14.850Z,100133.19
2023-05-22T14:47:20.178Z,100130.02
2023-05-22T14:49:25.283Z,100127.57
2023-05-22T14:51:30.648Z,100129.84
2023-05-22T14:53:35.881Z,100122.58
2023-05-22T14:55:41.680Z,100124.11
2023-05-22T14:57:47.008Z,100126.48
2023-05-22T14:59:52.166Z,100129.23
2023-05-22T15:01:57.524Z,100125.61
2023-05-22T15:04:02.987Z,100125.35
2023-05-22T15:06:08.434Z,100119.97
2023-05-22T15:08:13.665Z,100114.91
2023-05-22T15:10:18.973Z,100109.27
2023-05-22T15:12:24.339Z,100112.45
2023-05-22T15:14:29.594Z,100111.86
2023-05-22T15:16:35.019Z,100109.98
2023-05-22T15:18:40.412Z,100108.48
2023-05-22T15:20:45.899Z,100107.93
2023-05-22T15:22:51.341Z,100099.7
2023-05-22T15:24:56.848Z,100093.16
2023-05-22T15:27:01.960Z,100092.11
2023-05-22T15:29:07.346Z,100086.61
2023-05-22T15:31:12.543Z,100085.82
2023-05-22T15:33:17.923Z,100080.82
2023-05-22T15:35:23.258Z,100079.11
2023-05-22T15:37:30.262Z,100077.98
2023-05-22T15:39:36.912Z,100079.33
2023-05-22T15:41:46.704Z,100084.98
2023-05-22T15:44:09.602Z,100073.97
2023-05-22T15:46:15.028Z,100073.11
2023-05-22T15:48:20.471Z,100070.14
2023-05-22T15:50:25.844Z,100067.69
2023-05-22T15:52:31.268Z,100068.92
2023-05-22T15:54:36.622Z,100063.67
2023-05-22T15:56:41.940Z,100066.23
2023-05-22T15:58:47.277Z,100063.03
2023-05-22T16:00:52.715Z,100057.74
2023-05-22T16:02:58.369Z,100055.14
2023-05-22T16:05:04.114Z,100051.84
2023-05-22T16:07:09.538Z,100050
2023-05-22T16:09:14.991Z,100045.94
2023-05-22T16:11:20.427Z,100052.44
2023-05-22T16:13:25.974Z,100052.69
2023-05-22T16:15:31.426Z,100049.19
2023-05-22T16:17:36.811Z,100049.22
2023-05-22T16:19:42.081Z,100047.15
2023-05-22T16:21:48.088Z,100046.36
2023-05-22T16:23:53.375Z,100044.77
2023-05-22T16:25:58.769Z,100045.17
2023-05-22T16:28:04.056Z,100044.41
2023-05-22T16:30:09.460Z,100047.61
2023-05-22T16:32:14.728Z,100054.91
2023-05-22T16:34:20.065Z,100052.98
2023-05-22T16:36:27.759Z,100049.25
2023-05-22T16:38:32.895Z,100050
2023-05-22T16:40:38.054Z,100048.54
2023-05-22T16:42:43.185Z,100048.23
2023-05-22T16:44:48.320Z,100055.95
2023-05-22T16:46:53.510Z,100053.98
2023-05-22T16:48:58.974Z,100055.95
2023-05-22T16:51:04.419Z,100060.68
2023-05-22T16:53:09.677Z,100061.69
2023-05-22T16:55:15.094Z,100061.3
2023-05-22T16:57:20.896Z,100068.33
2023-05-22T16:59:26.412Z,100062.33
2023-05-22T17:01:32.358Z,100063.27
2023-05-22T17:03:38.224Z,100062.5
2023-05-22T17:05:44.087Z,100060.94
2023-05-22T17:07:49.464Z,100062.09
2023-05-22T17:09:54.928Z,100061.88
2023-05-22T17:12:00.368Z,100063.63
2023-05-22T17:14:05.792Z,100064.61
2023-05-22T17:16:11.075Z,100060.32
2023-05-22T17:18:16.372Z,100062.59
2023-05-22T17:20:21.713Z,100062.7
2023-05-22T17:22:27.113Z,100066.19
2023-05-22T17:24:32.391Z,100066.14
2023-05-22T17:26:37.717Z,100068.7
2023-05-22T17:28:43.157Z,100065.06
2023-05-22T17:30:48.385Z,100064.52
2023-05-22T17:32:53.761Z,100064.17
2023-05-22T17:34:59.148Z,100059.49
2023-05-22T17:37:04.350Z,100058.13
2023-05-22T17:39:09.617Z,100059.28
2023-05-22T17:41:14.975Z,100054.91
2023-05-22T17:43:20.384Z,100056.61
2023-05-22T17:45:25.508Z,100052.31
2023-05-22T17:47:30.729Z,100052.66
2023-05-22T17:49:36.106Z,100054.33
2023-05-22T17:51:41.357Z,100055.78
2023-05-22T17:53:46.587Z,100060.45
2023-05-22T17:55:51.874Z,100059.6
2023-05-22T17:57:57.630Z,100061.94
2023-05-22T18:00:03.023Z,100054.17
2023-05-22T18:02:08.420Z,100060.87
2023-05-22T18:04:13.913Z,100055.03
2023-05-22T18:06:19.935Z,100053.24
2023-05-22T18:08:28.388Z,100054.72
2023-05-22T18:10:33.957Z,100058.42
2023-05-22T18:12:39.919Z,100055.17
2023-05-22T18:14:45.620Z,100053.91
2023-05-22T18:16:50.941Z,100052.43
2023-05-22T18:18:56.304Z,100047.94
2023-05-22T18:21:01.849Z,100046.86
2023-05-22T18:23:07.163Z,100045.55
2023-05-22T18:25:12.612Z,100045.53
2023-05-22T18:27:17.983Z,100046.09
2023-05-22T18:29:23.488Z,100045.32
2023-05-22T18:31:29.036Z,100045.39
2023-05-22T18:33:34.463Z,100044.81
2023-05-22T18:35:39.914Z,100043.36
2023-05-22T18:37:45.464Z,100048.3
2023-05-22T18:39:50.812Z,100046.61
2023-05-22T18:41:56.127Z,100050.56
2023-05-22T18:44:01.561Z,100054.35
2023-05-22T18:46:06.999Z,100054.61
2023-05-22T18:48:12.730Z,100058.82
2023-05-22T18:50:18.498Z,100057.75
2023-05-22T18:52:27.035Z,100063.22
2023-05-22T18:54:32.349Z,100063.91
2023-05-22T18:56:37.802Z,100064.85
2023-05-22T18:58:43.130Z,100058.31
2023-05-22T19:00:48.631Z,100055.09
2023-05-22T19:02:54.293Z,100058.48
2023-05-22T19:04:59.978Z,100058.17
2023-05-22T19:07:05.453Z,100061.27
2023-05-22T19:09:10.739Z,100061.88
2023-05-22T19:11:16.076Z,100058.8
2023-05-22T19:13:21.547Z,100058.05
2023-05-22T19:15:26.918Z,100061.43
2023-05-22T19:17:32.338Z,100065.36
2023-05-22T19:19:37.778Z,100062.22
2023-05-22T19:21:43.590Z,100061.09
2023-05-22T19:23:49.033Z,100065.72
2023-05-22T19:25:54.474Z,100067.92
2023-05-22T19:28:00.114Z,100062.69
2023-05-22T19:30:05.356Z,100062.95
2023-05-22T19:32:10.640Z,100064.67
2023-05-22T19:34:16.028Z,100064.09
2023-05-22T19:36:21.357Z,100062.7
2023-05-22T19:38:26.642Z,100062.73
2023-05-22T19:40:32.159Z,100065.98
2023-05-22T19:42:37.793Z,100066.09
2023-05-22T19:44:43.277Z,100066.84
2023-05-22T19:46:48.836Z,100068.25
2023-05-22T19:48:54.322Z,100067.38
2023-05-22T19:50:59.653Z,100070.49
2023-05-22T19:53:05.194Z,100070.93
2023-05-22T19:55:10.449Z,100070.92
2023-05-22T19:57:15.975Z,100070.36
2023-05-22T19:59:21.378Z,100072.07
2023-05-22T20:01:26.821Z,100072.76
2023-05-22T20:03:32.463Z,100072.92
2023-05-22T20:05:38.247Z,100074.52
2023-05-22T20:07:44.106Z,100069.78
2023-05-22T20:09:49.431Z,100067.14
2023-05-22T20:11:54.679Z,100072.52
2023-05-22T20:14:00.099Z,100070.95
2023-05-22T20:16:05.566Z,100068.72
2023-05-22T20:18:10.986Z,100063.59
2023-05-22T20:20:16.230Z,100064.36
2023-05-22T20:22:21.488Z,100066.66
2023-05-22T20:24:26.722Z,100060.31
2023-05-22T20:26:32.023Z,100065.94
2023-05-22T20:28:37.314Z,100064.08
2023-05-22T20:30:42.673Z,100064.14
2023-05-22T20:32:48.389Z,100064.8
2023-05-22T20:34:53.914Z,100067.12
2023-05-22T20:36:59.152Z,100064.32
2023-05-22T20:39:04.631Z,100069.14
2023-05-22T20:41:11.124Z,100063.01
2023-05-22T20:43:16.347Z,100059.09
2023-05-22T20:45:21.782Z,100063.09
2023-05-22T20:47:27.224Z,100063.65
2023-05-22T20:49:32.551Z,100061.16
2023-05-22T20:51:37.994Z,100065.7
2023-05-22T20:53:43.432Z,100060.34
2023-05-22T20:55:48.735Z,100060.48
2023-05-22T20:57:54.017Z,100058.22
2023-05-22T20:59:59.458Z,100059.09
2023-05-22T21:02:04.789Z,100055.89
2023-05-22T21:04:10.223Z,100054.34
2023-05-22T21:06:15.573Z,100057.72
2023-05-22T21:08:20.905Z,100061.13
2023-05-22T21:10:26.312Z,100060.9
2023-05-22T21:12:31.575Z,100060.44
2023-05-22T21:14:36.921Z,100060.08
2023-05-22T21:16:42.254Z,100062.77
2023-05-22T21:18:47.846Z,100054.91
2023-05-22T21:20:54.874Z,100056.72
2023-05-22T21:23:00.124Z,100054.39
2023-05-22T21:25:05.404Z,100059.33
2023-05-22T21:27:10.612Z,100053.15
2023-05-22T21:29:15.918Z,100046.82
2023-05-22T21:31:21.371Z,100051.31
2023-05-22T21:33:26.695Z,100049.08
2023-05-22T21:35:31.934Z,100051.3
2023-05-22T21:37:37.285Z,100050.05
2023-05-22T21:39:42.833Z,100048.95
2023-05-22T21:41:50.971Z,100048.45
2023-05-22T21:43:56.366Z,100047.56
2023-05-22T21:46:01.690Z,100049.79
2023-05-22T21:48:07.065Z,100047.56
2023-05-22T21:50:12.471Z,100045.38
2023-05-22T21:52:17.721Z,100043.16
2023-05-22T21:54:23.037Z,100044.12
2023-05-22T21:56:28.384Z,100039.52
2023-05-22T21:58:33.720Z,100037.13
2023-05-22T22:00:39.359Z,100035.05
2023-05-22T22:02:45.171Z,100039.15
2023-05-22T22:04:50.772Z,100036.34
2023-05-22T22:06:56.102Z,100036.72
2023-05-22T22:09:01.603Z,100033.37
2023-05-22T22:11:06.893Z,100034.39
2023-05-22T22:13:12.178Z,100035.66
2023-05-22T22:15:17.454Z,100033.86
2023-05-22T22:17:22.823Z,100041.48
2023-05-22T22:19:28.526Z,100038.79
2023-05-22T22:21:34.296Z,100038.08
2023-05-22T22:23:39.621Z,100034.8
2023-05-22T22:25:44.914Z,100040.22
2023-05-22T22:27:50.193Z,100037.68
2023-05-22T22:29:55.436Z,100032.66
2023-05-22T22:32:00.774Z,100032.23
2023-05-22T22:34:06.221Z,100030.01
2023-05-22T22:36:14.207Z,100030.47
2023-05-22T22:38:19.663Z,100028.9
2023-05-22T22:40:27.870Z,100025.99
2023-05-22T22:42:33.411Z,100025.08
2023-05-22T22:44:38.741Z,100024.38
2023-05-22T22:46:44.038Z,100020.63
2023-05-22T22:48:49.338Z,100016.64
2023-05-22T22:50:54.470Z,100020.1
2023-05-22T22:52:59.951Z,100015.81
2023-05-22T22:55:05.876Z,100017.37
2023-05-22T22:57:11.619Z,100018.52
2023-05-22T22:59:17.045Z,100015.44
2023-05-22T23:01:22.314Z,100020.95
2023-05-22T23:03:27.937Z,100019.1
2023-05-22T23:05:33.265Z,100019.64
2023-05-22T23:07:38.819Z,100018.34
2023-05-22T23:09:44.154Z,100021.95
2023-05-22T23:11:49.494Z,100019.71
2023-05-22T23:13:54.850Z,100012.64
2023-05-22T23:16:00.353Z,100013.53
2023-05-22T23:18:05.930Z,100012.93
2023-05-22T23:20:11.244Z,100010.37
2023-05-22T23:22:16.507Z,100007.77
2023-05-22T23:24:21.725Z,100006.55
2023-05-22T23:26:27.080Z,99998.94
2023-05-22T23:28:32.399Z,100000.84
2023-05-22T23:30:37.636Z,100004.09
2023-05-22T23:32:42.928Z,99999.01
2023-05-22T23:34:48.197Z,100007.96
2023-05-22T23:36:53.546Z,99999.38
2023-05-22T23:38:58.884Z,99999.69
2023-05-22T23:41:04.118Z,99995.03
2023-05-22T23:43:09.458Z,99991.45
2023-05-22T23:45:14.795Z,99987.33
2023-05-22T23:47:19.990Z,99991.63
2023-05-22T23:49:25.149Z,99987.53
2023-05-22T23:51:30.397Z,99985.47
2023-05-22T23:53:35.593Z,99983.71
2023-05-22T23:55:41.447Z,99983.24
2023-05-22T23:57:47.239Z,99982.45
2023-05-22T23:59:52.997Z,99977.05